createdAt,value
2018-12-26T00:00:49.076Z,88.71
2018-12-26T00:03:16.494Z,88.69
2018-12-26T00:06:03.081Z,88.81
2018-12-26T00:14:33.638Z,89.20
2018-12-26T00:17:20.388Z,89.23
2018-12-26T00:19:48.045Z,89.27
2018-12-26T00:22:15.548Z,89.36
2018-12-26T00:24:42.763Z,89.58
2018-12-26T00:27:10.009Z,89.67
2018-12-26T00:29:37.515Z,89.77
2018-12-26T00:32:04.729Z,89.87
2018-12-26T00:34:31.953Z,89.91
2018-12-26T00:36:59.571Z,89.96
2018-12-26T00:42:27.605Z,89.89
2018-12-26T00:45:14.657Z,89.88
2018-12-26T00:47:41.903Z,89.90
2018-12-26T00:50:09.068Z,89.96
2018-12-26T00:52:36.156Z,90.00
2018-12-26T00:55:35.211Z,89.95
2018-12-26T00:58:02.395Z,89.85
2018-12-26T01:00:29.619Z,89.76
2018-12-26T01:03:16.264Z,89.72
2018-12-26T01:11:51.353Z,89.73
2018-12-26T01:14:18.512Z,89.75
2018-12-26T01:16:45.676Z,89.71
2018-12-26T01:19:12.864Z,89.74
2018-12-26T01:21:40.151Z,89.77
2018-12-26T01:24:39.049Z,89.84
2018-12-26T01:27:06.649Z,89.87
2018-12-26T01:29:33.835Z,89.90
2018-12-26T01:32:01.034Z,90.03
2018-12-26T01:34:28.135Z,90.10
2018-12-26T01:36:55.284Z,90.15
2018-12-26T01:42:23.273Z,90.22
2018-12-26T01:44:50.670Z,90.38
2018-12-26T01:49:57.373Z,90.42
2018-12-26T01:52:24.527Z,90.42
2018-12-26T01:54:51.728Z,90.37
2018-12-26T01:57:18.925Z,90.33
2018-12-26T02:02:58.796Z,90.51
2018-12-26T02:05:37.958Z,90.55
2018-12-26T02:08:05.270Z,90.63
2018-12-26T02:10:32.341Z,90.72
2018-12-26T02:13:11.725Z,90.80
2018-12-26T02:18:39.544Z,90.86
2018-12-26T02:21:06.751Z,90.94
2018-12-26T02:23:33.985Z,91.03
2018-12-26T02:26:01.201Z,91.07
2018-12-26T02:28:28.359Z,91.09
2018-12-26T02:36:48.758Z,91.09
2018-12-26T02:39:15.965Z,91.07
2018-12-26T02:41:43.161Z,91.05
2018-12-26T02:44:29.919Z,91.11
2018-12-26T02:46:57.078Z,91.17
2018-12-26T02:49:24.613Z,91.23
2018-12-26T02:51:51.846Z,91.29
2018-12-26T02:54:38.484Z,91.30
2018-12-26T02:57:06.166Z,91.31
2018-12-26T02:59:33.342Z,91.35
2018-12-26T03:02:00.524Z,91.42
2018-12-26T03:04:47.444Z,91.40
2018-12-26T03:07:34.358Z,91.38
2018-12-26T03:10:01.569Z,91.31
2018-12-26T03:12:30.575Z,91.30
2018-12-26T03:14:57.726Z,91.35
2018-12-26T03:17:25.025Z,91.35
2018-12-26T03:19:52.177Z,91.37
2018-12-26T03:22:38.855Z,91.37
2018-12-26T03:25:46.886Z,91.34
2018-12-26T03:28:14.104Z,91.33
2018-12-26T03:30:41.262Z,91.28
2018-12-26T03:33:19.909Z,91.19
2018-12-26T03:35:46.999Z,91.18
2018-12-26T03:38:14.321Z,91.18
2018-12-26T03:41:22.361Z,91.17
2018-12-26T03:56:07.771Z,90.78
2018-12-26T03:59:05.950Z,90.68
2018-12-26T04:01:33.153Z,90.64
2018-12-26T04:04:00.326Z,90.73
2018-12-26T04:06:27.524Z,90.80
2018-12-26T04:09:14.309Z,90.83
2018-12-26T04:11:41.493Z,90.87
2018-12-26T04:14:49.534Z,90.92
2018-12-26T04:17:16.698Z,90.90
2018-12-26T04:20:24.757Z,90.99
2018-12-26T04:26:12.353Z,90.88
2018-12-26T04:28:39.531Z,90.71
2018-12-26T04:31:06.685Z,90.66
2018-12-26T04:33:33.935Z,90.67
2018-12-26T04:36:20.465Z,90.77
2018-12-26T04:38:47.696Z,90.96
2018-12-26T04:44:16.418Z,91.16
2018-12-26T04:46:44.005Z,91.23
2018-12-26T04:49:11.198Z,91.20
2018-12-26T04:51:57.845Z,91.13
2018-12-26T04:58:07.488Z,90.35
2018-12-26T05:00:34.689Z,89.53
2018-12-26T05:03:01.799Z,89.14
2018-12-26T05:05:28.909Z,88.89
2018-12-26T05:07:55.966Z,88.16
2018-12-26T05:10:23.150Z,87.66
2018-12-26T05:13:02.028Z,87.12
2018-12-26T05:15:29.194Z,87.67
2018-12-26T05:17:56.368Z,87.53
2018-12-26T05:20:23.547Z,87.72
2018-12-26T05:22:50.715Z,87.70
2018-12-26T05:25:17.889Z,87.08
2018-12-26T05:27:45.202Z,86.92
2018-12-26T05:30:12.361Z,87.22
2018-12-26T05:32:39.638Z,87.57
2018-12-26T05:35:06.827Z,87.65
2018-12-26T05:37:34.023Z,87.67
2018-12-26T05:40:01.185Z,87.68
2018-12-26T05:42:28.419Z,87.55
2018-12-26T05:48:03.679Z,86.02
2018-12-26T05:50:50.207Z,85.53
2018-12-26T05:53:36.882Z,84.86
2018-12-26T05:56:04.046Z,85.11
2018-12-26T06:01:11.330Z,85.30
2018-12-26T06:03:58.025Z,85.16
2018-12-26T06:06:25.228Z,85.58
2018-12-26T06:08:52.408Z,86.12
2018-12-26T06:11:19.956Z,86.38
2018-12-26T06:13:47.168Z,86.63
2018-12-26T06:16:14.214Z,86.84
2018-12-26T06:18:41.391Z,87.06
2018-12-26T06:21:08.456Z,87.13
2018-12-26T06:23:35.630Z,87.14
2018-12-26T06:26:02.806Z,87.08
2018-12-26T06:28:30.210Z,86.86
2018-12-26T06:31:16.914Z,86.50
2018-12-26T06:33:44.187Z,85.92
2018-12-26T06:36:11.409Z,85.18
2018-12-26T06:38:39.029Z,84.85
2018-12-26T06:41:06.246Z,83.62
2018-12-26T06:43:52.955Z,83.55
2018-12-26T06:46:20.157Z,83.99
2018-12-26T06:48:47.303Z,84.00
2018-12-26T06:51:15.234Z,83.70
2018-12-26T06:57:03.456Z,83.52
2018-12-26T06:59:50.113Z,83.46
2018-12-26T07:02:36.876Z,83.89
2018-12-26T07:05:04.051Z,84.47
2018-12-26T07:07:31.295Z,84.68
2018-12-26T07:09:58.471Z,84.21
2018-12-26T07:15:18.207Z,84.35
2018-12-26T07:17:45.364Z,83.65
2018-12-26T07:23:31.031Z,83.73
2018-12-26T07:25:58.470Z,83.50
2018-12-26T07:28:25.620Z,83.37
2018-12-26T07:30:52.832Z,83.61
2018-12-26T07:33:39.719Z,82.79
2018-12-26T07:36:06.933Z,82.85
2018-12-26T07:42:06.605Z,83.84
2018-12-26T07:45:14.580Z,83.90
2018-12-26T07:48:01.517Z,84.11
2018-12-26T07:50:28.601Z,83.34
2018-12-26T07:53:15.306Z,82.78
2018-12-26T07:56:01.967Z,82.65
2018-12-26T07:58:48.638Z,82.70
2018-12-26T08:06:54.500Z,83.53
2018-12-26T08:09:41.178Z,83.56
2018-12-26T08:12:20.778Z,83.50
2018-12-26T08:17:27.571Z,82.50
2018-12-26T08:19:54.732Z,82.44
2018-12-26T08:22:21.936Z,82.58
2018-12-26T08:27:28.907Z,82.60
2018-12-26T08:29:56.152Z,82.49
2018-12-26T08:32:23.308Z,82.32
2018-12-26T08:34:50.536Z,81.67
2018-12-26T08:40:19.284Z,81.53
2018-12-26T08:42:46.457Z,81.39
2018-12-26T08:45:13.505Z,80.88
2018-12-26T08:48:00.310Z,80.72
2018-12-26T08:50:27.854Z,80.77
2018-12-26T08:52:55.012Z,80.81
2018-12-26T08:55:42.100Z,80.20
2018-12-26T09:01:23.715Z,80.00
2018-12-26T09:03:50.919Z,80.01
2018-12-26T09:06:18.085Z,80.13
2018-12-26T09:09:12.415Z,80.14
2018-12-26T09:11:39.667Z,80.37
2018-12-26T09:14:07.252Z,80.83
2018-12-26T09:17:15.273Z,80.89
2018-12-26T09:19:42.791Z,80.55
2018-12-26T09:22:09.945Z,79.41
2018-12-26T09:24:37.171Z,78.45
2018-12-26T09:27:47.108Z,78.20
2018-12-26T09:30:14.333Z,77.47
2018-12-26T09:32:41.496Z,77.92
2018-12-26T09:38:29.896Z,76.89
2018-12-26T09:40:57.097Z,76.48
2018-12-26T09:43:24.317Z,76.90
2018-12-26T09:48:32.106Z,77.67
2018-12-26T09:50:59.218Z,77.68
2018-12-26T09:53:26.847Z,77.40
2018-12-26T09:55:54.124Z,77.13
2018-12-26T09:58:21.339Z,76.41
2018-12-26T10:00:48.563Z,75.93
2018-12-26T10:03:15.750Z,75.67
2018-12-26T10:06:14.629Z,75.73
2018-12-26T10:08:41.794Z,75.81
2018-12-26T10:11:09.006Z,75.68
2018-12-26T10:14:17.056Z,75.47
2018-12-26T10:16:44.291Z,74.97
2018-12-26T10:19:11.473Z,74.32
2018-12-26T10:21:58.163Z,73.11
2018-12-26T10:27:37.910Z,74.44
2018-12-26T10:30:05.660Z,75.28
2018-12-26T10:32:32.838Z,73.75
2018-12-26T10:40:33.160Z,74.74
2018-12-26T10:43:00.425Z,74.64
2018-12-26T10:45:27.592Z,74.75
2018-12-26T10:47:54.795Z,74.73
2018-12-26T10:50:21.973Z,74.57
2018-12-26T10:53:08.902Z,74.93
2018-12-26T10:55:36.058Z,74.94
2018-12-26T10:58:03.269Z,74.71
2018-12-26T11:00:30.467Z,74.15
2018-12-26T11:02:57.943Z,74.04
2018-12-26T11:08:25.930Z,74.22
2018-12-26T11:10:53.187Z,74.58
2018-12-26T11:13:32.656Z,74.47
2018-12-26T11:15:59.824Z,74.46
2018-12-26T11:18:39.165Z,73.37
2018-12-26T11:21:06.239Z,73.61
2018-12-26T11:23:33.326Z,73.97
2018-12-26T11:26:00.544Z,74.12
2018-12-26T11:28:27.752Z,74.11
2018-12-26T11:33:56.631Z,73.84
2018-12-26T11:36:55.716Z,73.96
2018-12-26T11:39:22.801Z,74.21
2018-12-26T11:44:29.913Z,75.03
2018-12-26T11:46:57.122Z,75.88
2018-12-26T11:49:24.325Z,75.79
2018-12-26T11:51:51.523Z,75.49
2018-12-26T11:54:18.742Z,75.24
2018-12-26T11:56:45.919Z,75.16
2018-12-26T11:59:13.153Z,75.00
2018-12-26T12:01:40.636Z,74.78
2018-12-26T12:04:08.191Z,74.13
2018-12-26T12:06:35.454Z,73.52
2018-12-26T12:12:48.853Z,71.96
2018-12-26T12:15:16.361Z,72.28
2018-12-26T12:17:43.428Z,72.37
2018-12-26T12:20:11.525Z,72.03
2018-12-26T12:22:38.824Z,71.65
2018-12-26T12:25:06.043Z,70.55
2018-12-26T12:27:33.250Z,70.06
2018-12-26T12:30:00.490Z,71.10
2018-12-26T12:32:27.677Z,72.07
2018-12-26T12:34:54.879Z,72.13
2018-12-26T12:37:22.052Z,72.31
2018-12-26T12:39:49.261Z,72.93
2018-12-26T12:48:18.574Z,72.02
2018-12-26T12:51:05.795Z,72.17
2018-12-26T12:53:44.722Z,72.87
2018-12-26T12:56:12.316Z,73.64
2018-12-26T12:59:00.799Z,74.03
2018-12-26T13:04:05.848Z,74.28
2018-12-26T13:09:34.651Z,74.18
2018-12-26T13:12:01.848Z,73.04
2018-12-26T13:14:30.810Z,72.91
2018-12-26T13:16:58.080Z,72.87
2018-12-26T13:19:25.264Z,73.50
2018-12-26T13:21:52.468Z,73.98
2018-12-26T13:24:39.135Z,73.19
2018-12-26T13:27:06.396Z,73.30
2018-12-26T13:29:54.123Z,72.93
2018-12-26T13:35:53.129Z,74.45
2018-12-26T13:38:20.355Z,74.74
2018-12-26T13:43:49.010Z,75.43
2018-12-26T13:46:57.026Z,75.48
2018-12-26T13:55:19.935Z,74.58
2018-12-26T13:57:47.171Z,74.74
2018-12-26T14:00:14.339Z,74.72
2018-12-26T14:02:41.552Z,74.87
2018-12-26T14:05:08.817Z,75.02
2018-12-26T14:07:36.009Z,75.09
2018-12-26T14:10:44.195Z,75.17
2018-12-26T14:13:11.442Z,75.08
2018-12-26T14:15:38.605Z,75.14
2018-12-26T14:18:46.534Z,75.08
2018-12-26T14:24:47.157Z,74.54
2018-12-26T14:27:14.472Z,74.25
2018-12-26T14:29:42.566Z,74.53
2018-12-26T14:32:20.692Z,74.88
2018-12-26T14:34:47.881Z,74.82
2018-12-26T14:37:15.058Z,74.84
2018-12-26T14:40:02.064Z,74.93
2018-12-26T14:42:29.233Z,74.65
2018-12-26T14:44:56.472Z,75.80
2018-12-26T14:47:23.556Z,76.14
2018-12-26T14:49:50.725Z,76.46
2018-12-26T14:52:58.639Z,76.98
2018-12-26T14:55:25.865Z,77.23
2018-12-26T14:57:52.936Z,77.45
2018-12-26T15:03:52.824Z,77.62
2018-12-26T15:06:39.496Z,77.54
2018-12-26T15:09:47.899Z,77.52
2018-12-26T15:12:15.491Z,77.37
2018-12-26T15:14:42.663Z,77.34
2018-12-26T15:17:50.681Z,76.83
2018-12-26T15:20:17.866Z,76.29
2018-12-26T15:22:45.045Z,76.94
2018-12-26T15:28:13.149Z,77.71
2018-12-26T15:30:40.328Z,78.12
2018-12-26T15:33:07.941Z,78.08
2018-12-26T15:35:35.094Z,78.16
2018-12-26T15:38:02.290Z,78.34
2018-12-26T15:40:29.499Z,78.41
2018-12-26T15:45:49.489Z,78.19
2018-12-26T15:48:36.543Z,78.46
2018-12-26T15:51:03.674Z,78.84
2018-12-26T15:53:30.877Z,78.91
2018-12-26T15:58:59.456Z,79.16
2018-12-26T16:01:46.123Z,79.12
2018-12-26T16:04:13.327Z,79.19
2018-12-26T16:06:40.952Z,79.31
2018-12-26T16:09:08.126Z,79.37
2018-12-26T16:11:35.386Z,78.95
2018-12-26T16:17:42.350Z,78.70
2018-12-26T16:20:09.905Z,79.08
2018-12-26T16:22:37.080Z,79.19
2018-12-26T16:25:45.694Z,79.28
2018-12-26T16:28:13.299Z,79.39
2018-12-26T16:30:47.005Z,79.25
2018-12-26T16:33:14.192Z,79.29
2018-12-26T16:35:41.267Z,79.27
2018-12-26T16:38:08.491Z,79.29
2018-12-26T16:40:35.638Z,79.13
2018-12-26T16:43:02.847Z,79.20
2018-12-26T16:45:29.968Z,79.26
2018-12-26T16:47:57.033Z,79.39
2018-12-26T16:50:27.072Z,79.46
2018-12-26T16:53:03.035Z,79.45
2018-12-26T16:55:30.759Z,79.42
2018-12-26T16:58:10.248Z,79.47
2018-12-26T17:00:37.421Z,79.59
2018-12-26T17:03:04.530Z,79.47
2018-12-26T17:05:43.770Z,79.18
2018-12-26T17:08:23.168Z,78.80
2018-12-26T17:11:09.934Z,79.09
2018-12-26T17:13:38.573Z,79.51
2018-12-26T17:16:25.988Z,79.74
2018-12-26T17:18:53.194Z,79.77
2018-12-26T17:21:40.194Z,79.78
2018-12-26T17:27:19.718Z,79.82
2018-12-26T17:29:46.907Z,79.88
2018-12-26T17:32:33.582Z,79.84
2018-12-26T17:38:00.484Z,79.75
2018-12-26T17:40:27.709Z,79.80
2018-12-26T17:42:55.195Z,79.83
2018-12-26T17:46:03.806Z,79.83
2018-12-26T17:48:31.006Z,79.28
2018-12-26T17:51:40.517Z,78.94
2018-12-26T17:54:46.652Z,79.16
2018-12-26T17:57:35.480Z,79.54
2018-12-26T18:00:25.529Z,79.37
2018-12-26T18:05:54.218Z,79.96
2018-12-26T18:08:34.226Z,80.25
2018-12-26T18:11:01.310Z,80.35
2018-12-26T18:13:28.874Z,80.40
2018-12-26T18:18:55.438Z,80.28
2018-12-26T18:21:22.598Z,80.22
2018-12-26T18:23:50.044Z,80.06
2018-12-26T18:26:17.184Z,80.11
2018-12-26T18:28:44.397Z,80.16
2018-12-26T18:31:52.407Z,80.19
2018-12-26T18:34:19.800Z,80.16
2018-12-26T18:37:27.740Z,80.07
2018-12-26T18:39:54.964Z,79.95
2018-12-26T18:42:22.196Z,80.08
2018-12-26T18:50:31.319Z,80.28
2018-12-26T18:56:18.578Z,80.48
2018-12-26T18:58:45.723Z,80.25
2018-12-26T19:01:12.865Z,80.26
2018-12-26T19:03:59.523Z,79.85
2018-12-26T19:06:26.696Z,79.60
2018-12-26T19:09:06.231Z,79.78
2018-12-26T19:11:33.426Z,79.99
2018-12-26T19:14:00.939Z,80.13
2018-12-26T19:19:49.056Z,80.24
2018-12-26T19:22:16.248Z,80.10
2018-12-26T19:25:24.285Z,80.03
2018-12-26T19:31:25.851Z,80.03
2018-12-26T19:34:12.498Z,80.07
2018-12-26T19:36:59.198Z,79.93
2018-12-26T19:39:26.656Z,79.97
2018-12-26T19:41:53.752Z,78.87
2018-12-26T19:44:20.853Z,78.82
2018-12-26T19:46:48.075Z,79.46
2018-12-26T19:49:15.268Z,79.85
2018-12-26T19:51:42.820Z,79.97
2018-12-26T19:54:10.057Z,80.16
2018-12-26T19:56:37.250Z,80.26
2018-12-26T19:59:23.963Z,80.35
2018-12-26T20:01:51.447Z,80.47
2018-12-26T20:04:19.011Z,79.15
2018-12-26T20:07:27.239Z,79.28
2018-12-26T20:09:54.477Z,79.92
2018-12-26T20:15:02.398Z,80.67
2018-12-26T20:17:29.563Z,80.81
2018-12-26T20:19:56.800Z,80.87
2018-12-26T20:22:24.057Z,81.03
2018-12-26T20:24:51.246Z,81.08
2018-12-26T20:27:37.897Z,80.96
2018-12-26T20:33:39.606Z,80.87
2018-12-26T20:36:06.810Z,80.18
2018-12-26T20:38:33.984Z,80.40
2018-12-26T20:41:01.554Z,80.52
2018-12-26T20:43:48.200Z,80.59
2018-12-26T20:46:34.957Z,80.64
2018-12-26T20:49:02.125Z,80.61
2018-12-26T20:51:31.928Z,80.38
2018-12-26T20:53:59.139Z,79.96
2018-12-26T20:56:46.100Z,80.01
2018-12-26T20:59:32.941Z,79.99
2018-12-26T21:02:05.671Z,79.95
2018-12-26T21:04:39.028Z,80.21
2018-12-26T21:07:06.620Z,80.71
2018-12-26T21:09:33.812Z,80.81
2018-12-26T21:12:01.461Z,81.03
2018-12-26T21:14:28.630Z,80.96
2018-12-26T21:17:07.638Z,81.10
2018-12-26T21:19:54.269Z,81.26
2018-12-26T21:22:21.502Z,81.41
2018-12-26T21:24:48.684Z,81.37
2018-12-26T21:27:22.494Z,81.51
2018-12-26T21:29:49.758Z,80.90
2018-12-26T21:32:36.819Z,80.52
2018-12-26T21:35:44.931Z,80.63
2018-12-26T21:38:12.164Z,80.75
2018-12-26T21:40:39.344Z,81.10
2018-12-26T21:43:07.003Z,81.32
2018-12-26T21:45:34.450Z,81.38
2018-12-26T21:48:01.927Z,81.51
2018-12-26T21:50:48.497Z,81.40
2018-12-26T21:56:28.670Z,81.51
2018-12-26T21:59:15.351Z,81.53
2018-12-26T22:01:42.602Z,81.16
2018-12-26T22:07:29.976Z,80.46
2018-12-26T22:12:58.593Z,80.79
2018-12-26T22:15:25.827Z,81.01
2018-12-26T22:17:52.916Z,81.02
2018-12-26T22:20:20.138Z,80.97
2018-12-26T22:22:47.337Z,80.98
2018-12-26T22:25:14.573Z,80.57
2018-12-26T22:28:13.645Z,80.15
2018-12-26T22:30:40.821Z,80.27
2018-12-26T22:33:08.387Z,80.67
2018-12-26T22:35:35.490Z,80.87
2018-12-26T22:38:02.707Z,80.77
2018-12-26T22:40:29.923Z,80.53
2018-12-26T22:45:50.158Z,80.06
2018-12-26T22:48:17.383Z,80.44
2018-12-26T22:54:36.580Z,81.20
2018-12-26T22:57:04.157Z,81.28
2018-12-26T23:00:12.174Z,81.02
2018-12-26T23:02:39.338Z,81.24
2018-12-26T23:05:26.341Z,81.55
2018-12-26T23:11:06.725Z,81.24
2018-12-26T23:13:33.889Z,81.26
2018-12-26T23:16:01.064Z,81.49
2018-12-26T23:18:28.163Z,81.44
2018-12-26T23:20:55.233Z,81.44
2018-12-26T23:24:03.307Z,81.61
2018-12-26T23:26:30.577Z,81.76
2018-12-26T23:32:11.864Z,81.71
2018-12-26T23:34:39.082Z,81.61
2018-12-26T23:37:06.284Z,81.58
2018-12-26T23:39:52.853Z,81.22
2018-12-26T23:42:20.319Z,81.34
2018-12-26T23:45:28.294Z,81.48
2018-12-26T23:47:55.473Z,81.54
2018-12-26T23:50:22.684Z,81.87
2018-12-26T23:52:49.872Z,82.06
2018-12-26T23:55:16.956Z,82.20
2018-12-26T23:57:44.126Z,82.16
